Time;durP1;ratioP1;P1;durP2;ratioP2;P2;SDS_P1;SDS_P2;PMS_P1;PMS_P2;Temp;Humidity;BMP_temperature;BMP_pressure;BME280_temperature;BME280_humidity;BME280_pressure;Samples;Min_cycle;Max_cycle;Signal;HPM_P1;HPM_P2
2023/02/03 00:04:51;;;;;;;9.80;4.70;;;;;;;0.04;88.35;99115.02;435173;1255;109721;-40
2023/02/03 00:14:58;;;;;;;10.40;5.50;;;;;;;0.06;88.26;99120.33;435193;1253;106882;-40
2023/02/03 00:25:06;;;;;;;7.70;4.70;;;;;;;0.08;88.26;99121.77;435166;1253;97484;-40
2023/02/03 00:35:13;;;;;;;18.20;8.50;;;;;;;0.05;88.26;99135.39;435198;1251;108280;-40
2023/02/03 00:45:21;;;;;;;12.60;7.20;;;;;;;0.01;88.19;99147.35;435150;1254;97989;-39
2023/02/03 00:55:28;;;;;;;14.50;5.20;;;;;;;-0.11;88.06;99142.59;435202;1255;97797;-39
2023/02/03 01:05:35;;;;;;;5.60;2.60;;;;;;;-0.15;87.61;99126.35;435169;1255;109688;-40
2023/02/03 01:15:45;;;;;;;8.20;4.00;;;;;;;-0.10;87.54;99120.70;435178;1255;108242;-40
2023/02/03 01:25:52;;;;;;;9.10;4.60;;;;;;;-0.11;87.48;99125.05;435256;1252;97877;-39
2023/02/03 01:36:01;;;;;;;9.00;5.00;;;;;;;-0.23;87.37;99112.73;435475;1255;112635;-39
2023/02/03 01:46:07;;;;;;;9.50;4.50;;;;;;;-0.32;87.30;99112.06;435539;1251;108715;-39
2023/02/03 01:56:15;;;;;;;7.70;4.00;;;;;;;-0.42;87.17;99108.16;435626;1250;97471;-39
2023/02/03 02:06:22;;;;;;;4.40;2.90;;;;;;;-0.59;86.95;99098.80;436882;1248;97501;-40
2023/02/03 02:16:28;;;;;;;7.10;3.30;;;;;;;-0.76;86.75;99091.01;437084;1248;109261;-39
2023/02/03 02:27:05;;;;;;;6.60;3.20;;;;;;;-0.90;86.90;99091.04;436962;1248;107627;-39
2023/02/03 02:37:11;;;;;;;12.90;4.70;;;;;;;-1.07;87.19;99065.77;436954;1251;97844;-39
2023/02/03 02:47:16;;;;;;;8.10;3.80;;;;;;;-1.13;87.13;99034.38;436972;1251;110204;-39
2023/02/03 02:57:26;;;;;;;10.80;5.00;;;;;;;-1.14;87.43;99031.93;436840;1251;109012;-40
2023/02/03 03:07:33;;;;;;;9.60;5.40;;;;;;;-1.29;87.13;99053.84;436889;1251;97453;-39
2023/02/03 03:17:47;;;;;;;7.80;3.60;;;;;;;-1.48;86.82;99076.67;437002;1251;96670;-40
2023/02/03 03:27:59;;;;;;;5.30;3.80;;;;;;;-1.36;87.26;99052.95;436539;1251;469132;-39
2023/02/03 03:38:08;;;;;;;11.10;4.90;;;;;;;-1.11;87.45;99035.57;436829;1251;97003;-40
2023/02/03 03:48:16;;;;;;;;;;;;;;;-1.21;87.12;99013.30;436962;1251;110416;-40
2023/02/03 03:58:28;;;;;;;10.20;4.20;;;;;;;-1.32;87.26;99005.39;436817;1251;111151;-40
2023/02/03 04:08:35;;;;;;;12.20;5.70;;;;;;;-1.42;87.17;99009.27;437257;1247;107849;-40
2023/02/03 04:18:42;;;;;;;11.80;5.50;;;;;;;-1.42;87.46;99007.37;437353;1251;98027;-40
2023/02/03 04:28:50;;;;;;;9.10;4.20;;;;;;;-1.43;87.27;98991.36;437336;1251;110034;-40
2023/02/03 04:38:58;;;;;;;12.10;6.20;;;;;;;-1.43;86.93;98983.38;437085;1248;107579;-40
2023/02/03 04:49:05;;;;;;;11.80;5.20;;;;;;;-1.30;87.29;98967.27;437263;1251;97918;-39
2023/02/03 04:59:12;;;;;;;15.30;7.60;;;;;;;-1.27;87.33;98944.52;437234;1251;107839;-39
2023/02/03 05:09:19;;;;;;;13.10;7.40;;;;;;;-1.36;87.24;98924.41;437106;1251;98603;-39
2023/02/03 05:19:26;;;;;;;16.60;8.20;;;;;;;-1.49;87.27;98914.31;439263;1251;96679;-40
2023/02/03 05:29:33;;;;;;;14.00;7.20;;;;;;;-1.52;87.50;98908.06;437190;1251;111539;-39
2023/02/03 05:39:40;;;;;;;16.10;7.70;;;;;;;-1.50;87.41;98881.42;437126;1251;107715;-41
2023/02/03 05:49:48;;;;;;;13.00;7.20;;;;;;;-1.39;87.40;98860.84;437181;1247;96637;-40
2023/02/03 05:59:55;;;;;;;15.20;6.30;;;;;;;-1.30;87.54;98846.73;437040;1248;110521;-39
2023/02/03 06:10:03;;;;;;;18.50;8.00;;;;;;;-1.26;87.56;98837.73;436971;1247;107727;-40
2023/02/03 06:20:13;;;;;;;25.50;10.50;;;;;;;-1.32;87.60;98827.60;436994;1251;97876;-39
2023/02/03 06:30:22;;;;;;;28.40;9.90;;;;;;;-1.38;87.54;98827.48;436900;1251;110112;-40
2023/02/03 06:40:29;;;;;;;28.50;12.40;;;;;;;-1.38;87.71;98815.59;436853;1251;107717;-40
2023/02/03 06:50:37;;;;;;;19.70;11.30;;;;;;;-1.38;87.48;98785.59;436733;1248;97556;-40
2023/02/03 07:00:44;;;;;;;17.80;10.30;;;;;;;-1.19;87.58;98768.36;436663;1251;110458;-40
2023/02/03 07:10:53;;;;;;;18.00;8.40;;;;;;;-1.05;87.64;98760.59;436601;1248;107579;-40
2023/02/03 07:21:04;;;;;;;23.00;9.70;;;;;;;-0.96;87.69;98735.77;436738;1251;97889;-41
2023/02/03 07:31:11;;;;;;;15.20;7.70;;;;;;;-0.95;87.66;98712.86;436719;1251;110006;-40
2023/02/03 07:41:18;;;;;;;22.50;9.10;;;;;;;-0.91;87.72;98684.77;436680;1251;108339;-40
2023/02/03 07:51:24;;;;;;;14.20;6.10;;;;;;;-0.77;87.57;98674.69;436657;1251;96659;-40
2023/02/03 08:01:32;;;;;;;16.50;7.90;;;;;;;-0.57;87.21;98652.39;436738;1247;108837;-40
2023/02/03 08:11:40;;;;;;;16.60;7.60;;;;;;;-0.40;87.21;98622.89;436688;1247;106796;-40
2023/02/03 08:21:47;;;;;;;16.30;7.30;;;;;;;-0.32;87.17;98616.66;436844;1247;97456;-40
2023/02/03 08:31:57;;;;;;;19.90;8.60;;;;;;;-0.27;86.93;98609.88;436825;1247;110592;-40
2023/02/03 08:42:04;;;;;;;25.00;10.50;;;;;;;-0.23;86.80;98590.50;436610;1253;107649;-40
2023/02/03 08:52:13;;;;;;;12.40;7.60;;;;;;;-0.09;86.53;98567.07;436813;1247;97548;-39
2023/02/03 09:02:24;;;;;;;16.20;8.10;;;;;;;0.07;86.46;98555.57;436948;1251;110888;-39
2023/02/03 09:12:31;;;;;;;20.70;8.90;;;;;;;0.17;86.72;98542.44;437080;1251;107111;-40
2023/02/03 09:22:39;;;;;;;9.20;4.90;;;;;;;0.26;86.62;98528.11;436959;1248;97782;-39
2023/02/03 09:53:04;;;;;;;18.20;7.10;;;;;;;0.10;86.68;98427.81;437081;1247;97447;-43
2023/02/03 10:03:16;;;;;;;12.00;6.60;;;;;;;-0.11;86.82;98387.49;437196;1251;97071;-40
2023/02/03 10:13:30;;;;;;;15.70;7.70;;;;;;;-0.22;87.18;98353.52;437102;1251;109416;-39
2023/02/03 10:23:41;;;;;;;21.90;8.30;;;;;;;-0.14;87.97;98320.75;437187;1248;107010;-39
2023/02/03 10:33:49;;;;;;;21.20;9.70;;;;;;;-0.12;88.11;98270.88;437081;1251;97874;-38
2023/02/03 10:43:58;;;;;;;27.30;12.30;;;;;;;-0.18;88.72;98225.63;437156;1247;107469;-40
2023/02/03 10:54:26;;;;;;;22.20;10.30;;;;;;;-0.23;89.21;98195.81;437191;1251;97806;-40
2023/02/03 11:04:34;;;;;;;25.30;13.40;;;;;;;-0.20;89.57;98156.52;436972;1247;109462;-39
2023/02/03 11:14:44;;;;;;;32.20;16.90;;;;;;;-0.02;89.76;98114.09;436955;1251;107503;-39
2023/02/03 11:24:50;;;;;;;29.40;16.90;;;;;;;0.12;90.23;98071.33;436889;1247;98083;-38
2023/02/03 11:34:57;;;;;;;33.30;17.00;;;;;;;0.25;90.40;98035.77;436983;1247;108346;-38
2023/02/03 11:45:13;;;;;;;24.10;12.40;;;;;;;0.39;90.63;98003.46;436889;1247;97546;-39
2023/02/03 12:05:42;;;;;;;20.10;11.20;;;;;;;0.46;90.85;97947.41;436809;1251;107721;-39
2023/02/03 12:15:53;;;;;;;19.00;10.00;;;;;;;0.53;90.90;97913.33;437020;1248;97895;-39
2023/02/03 12:26:02;;;;;;;17.00;9.60;;;;;;;0.70;90.82;97883.20;437216;1247;106801;-39
2023/02/03 12:36:07;;;;;;;17.80;11.00;;;;;;;0.87;90.99;97854.21;437238;1252;97486;-40
2023/02/03 12:46:20;;;;;;;17.70;9.10;;;;;;;0.95;91.05;97822.38;437226;1251;109596;-38
2023/02/03 13:06:35;;;;;;;12.50;7.50;;;;;;;0.78;91.34;97759.07;437285;1251;97850;-39
2023/02/03 13:16:43;;;;;;;14.00;8.20;;;;;;;0.72;91.34;97725.35;437317;1247;110534;-39
2023/02/03 13:27:09;;;;;;;11.10;6.50;;;;;;;0.68;91.49;97683.99;437144;1253;108576;-39
2023/02/03 13:37:43;;;;;;;7.60;5.90;;;;;;;0.68;91.72;97644.73;437298;1253;97796;-40
2023/02/03 13:47:49;;;;;;;11.00;4.50;;;;;;;0.72;92.00;97612.55;437201;1251;108750;-40
2023/02/03 14:08:27;;;;;;;13.30;8.50;;;;;;;0.79;92.12;97570.72;437234;1253;109613;-39
2023/02/03 14:18:45;;;;;;;10.60;7.40;;;;;;;0.79;92.38;97558.71;437243;1248;108581;-41
2023/02/03 14:28:52;;;;;;;9.40;5.90;;;;;;;0.83;92.40;97560.13;437418;1248;97864;-39
2023/02/03 14:39:03;;;;;;;10.80;7.30;;;;;;;0.88;92.43;97558.41;437270;1252;106994;-39
2023/02/03 14:49:19;;;;;;;13.60;9.00;;;;;;;0.92;92.52;97539.20;439092;1251;97531;-41
2023/02/03 14:59:29;;;;;;;22.50;11.50;;;;;;;0.95;92.69;97526.34;439681;1253;97455;-39
2023/02/03 15:09:38;;;;;;;;;;;;;;;1.01;92.91;97506.86;437910;1253;110071;-39
2023/02/03 15:19:45;;;;;;;9.50;7.30;;;;;;;1.14;93.45;97515.05;437397;1248;106232;-39
2023/02/03 15:29:53;;;;;;;8.70;4.90;;;;;;;1.34;93.75;97515.25;436981;1253;432444;-39
2023/02/03 15:39:59;;;;;;;10.50;6.60;;;;;;;1.57;94.57;97522.85;437385;1248;109451;-40
2023/02/03 16:00:33;;;;;;;27.30;14.50;;;;;;;1.90;94.93;97554.23;437352;1253;110461;-39
2023/02/03 16:10:40;;;;;;;14.80;8.80;;;;;;;1.95;94.93;97559.53;437299;1253;106568;-39
2023/02/03 16:20:51;;;;;;;28.80;14.00;;;;;;;1.99;95.06;97565.77;437341;1253;97473;-40
2023/02/03 16:51:51;;;;;;;9.90;4.70;;;;;;;2.25;96.46;97601.99;437381;1253;110534;-40
2023/02/03 17:01:59;;;;;;;13.60;5.50;;;;;;;2.32;96.65;97615.02;437377;1253;107598;-39
2023/02/03 17:12:05;;;;;;;21.10;8.70;;;;;;;2.36;96.78;97621.24;437334;1253;97338;-39
2023/02/03 17:22:13;;;;;;;11.40;3.60;;;;;;;2.29;96.72;97627.87;437344;1251;107924;-39
2023/02/03 17:32:20;;;;;;;11.10;3.90;;;;;;;2.22;96.48;97648.55;437461;1254;97982;-39
2023/02/03 17:42:26;;;;;;;15.00;4.60;;;;;;;2.20;96.68;97654.52;437509;1253;110027;-40
2023/02/03 17:52:51;;;;;;;13.20;4.70;;;;;;;2.15;96.42;97653.89;437307;1252;109337;-39
2023/02/03 18:03:09;;;;;;;12.70;5.30;;;;;;;2.14;96.32;97671.38;437355;1247;96626;-39
2023/02/03 18:13:17;;;;;;;20.70;9.10;;;;;;;2.09;96.08;97680.94;437414;1253;107391;-38
2023/02/03 18:23:23;;;;;;;30.40;11.40;;;;;;;2.01;96.15;97685.55;437299;1247;97948;-38
2023/02/03 18:33:30;;;;;;;21.00;8.10;;;;;;;2.01;96.30;97690.73;437228;1253;110703;-38
2023/02/03 18:43:38;;;;;;;21.20;8.30;;;;;;;2.12;96.70;97694.48;437230;1251;107640;-39
2023/02/03 18:53:45;;;;;;;13.00;4.60;;;;;;;2.21;97.07;97696.78;437285;1261;97489;-39
2023/02/03 19:03:53;;;;;;;53.70;20.60;;;;;;;2.24;97.12;97709.50;437299;1248;107762;-39
2023/02/03 19:14:01;;;;;;;10.50;3.40;;;;;;;2.17;97.14;97718.04;436480;1253;97886;-40
2023/02/03 19:24:08;;;;;;;63.90;25.60;;;;;;;2.05;97.13;97727.63;436475;1254;110991;-39
2023/02/03 19:34:14;;;;;;;4.90;3.20;;;;;;;1.91;96.98;97731.61;436389;1261;106539;-38
2023/02/03 19:44:21;;;;;;;8.30;4.50;;;;;;;1.79;96.95;97736.11;436364;1261;97454;-39
2023/02/03 19:54:29;;;;;;;7.40;4.10;;;;;;;1.79;97.09;97738.70;436482;1253;109270;-38
2023/02/03 20:04:36;;;;;;;16.00;5.10;;;;;;;1.86;97.27;97738.84;436403;1247;96698;-39
2023/02/03 20:14:44;;;;;;;22.00;4.90;;;;;;;1.95;97.18;97751.77;436370;1254;110885;-38
2023/02/03 20:24:51;;;;;;;15.50;4.50;;;;;;;2.01;97.35;97749.58;436436;1261;108075;-39
2023/02/03 20:45:13;;;;;;;14.10;4.40;;;;;;;2.09;97.69;97743.45;436492;1254;109112;-38
2023/02/03 20:55:18;;;;;;;15.90;4.30;;;;;;;2.10;97.56;97737.18;436463;1254;97867;-40
2023/02/03 21:15:32;;;;;;;16.10;5.20;;;;;;;2.14;97.80;97740.31;437201;1254;106822;-39
2023/02/03 21:25:40;;;;;;;14.50;4.30;;;;;;;2.14;97.77;97741.95;437338;1251;97342;-38
2023/02/03 21:35:48;;;;;;;10.80;2.90;;;;;;;2.10;97.58;97735.54;437316;1261;108636;-38
2023/02/03 21:45:55;;;;;;;8.70;3.40;;;;;;;2.11;97.90;97729.64;437313;1247;97946;-44
2023/02/03 21:56:03;;;;;;;10.40;3.10;;;;;;;2.20;98.09;97735.02;437309;1257;109762;-40
2023/02/03 22:06:23;;;;;;;16.70;5.40;;;;;;;2.24;98.34;97737.19;437240;1248;108560;-39
2023/02/03 22:16:30;;;;;;;7.60;3.40;;;;;;;2.18;98.47;97735.54;437232;1251;96949;-40
2023/02/03 22:26:38;;;;;;;4.60;2.90;;;;;;;2.09;98.27;97722.14;437092;1248;108508;-40
2023/02/03 22:36:45;;;;;;;10.60;4.10;;;;;;;2.08;98.31;97720.38;437081;1251;97836;-40
2023/02/03 22:46:52;;;;;;;6.50;2.50;;;;;;;2.10;98.34;97718.34;436853;1257;110267;-40
2023/02/03 22:56:59;;;;;;;7.00;2.30;;;;;;;2.24;98.77;97710.30;436847;1251;107357;-40
2023/02/03 23:07:07;;;;;;;9.10;3.20;;;;;;;2.32;98.69;97696.21;436919;1248;97133;-39
2023/02/03 23:17:13;;;;;;;7.80;2.30;;;;;;;2.38;98.91;97688.32;436849;1248;109360;-40
2023/02/03 23:27:20;;;;;;;4.60;2.30;;;;;;;2.42;99.02;97675.16;436818;1257;97090;-39
2023/02/03 23:37:27;;;;;;;5.80;2.10;;;;;;;2.44;98.89;97660.98;436961;1254;109561;-40
2023/02/03 23:47:34;;;;;;;9.10;2.30;;;;;;;2.44;99.02;97643.13;437017;1248;107389;-39
2023/02/03 23:57:42;;;;;;;8.00;3.30;;;;;;;2.43;99.08;97643.25;436930;1251;97855;-40
